createdAt,value
2023-01-10T00:00:03.087Z,4.10
2023-01-10T00:01:03.087Z,4.10
2023-01-10T00:02:03.038Z,4.10
2023-01-10T00:03:02.990Z,4.10
2023-01-10T00:04:02.776Z,4.10
2023-01-10T00:05:02.724Z,4.10
2023-01-10T00:06:02.595Z,4.10
2023-01-10T00:07:03.513Z,4.20
2023-01-10T00:08:03.543Z,4.20
2023-01-10T00:09:03.448Z,4.20
2023-01-10T00:10:03.423Z,4.20
2023-01-10T00:11:03.397Z,4.20
2023-01-10T00:12:03.358Z,4.20
2023-01-10T00:13:03.377Z,4.20
2023-01-10T00:14:03.358Z,4.20
2023-01-10T00:15:03.348Z,4.20
2023-01-10T00:16:03.287Z,4.20
2023-01-10T00:17:03.162Z,4.20
2023-01-10T00:18:03.129Z,4.20
2023-01-10T00:19:03.029Z,4.20
2023-01-10T00:20:03.025Z,4.20
2023-01-10T00:21:03.056Z,4.20
2023-01-10T00:22:02.959Z,4.20
2023-01-10T00:23:03.060Z,4.20
2023-01-10T00:24:03.093Z,4.30
2023-01-10T00:25:02.907Z,4.30
2023-01-10T00:26:02.831Z,4.30
2023-01-10T00:27:02.843Z,4.30
2023-01-10T00:28:02.705Z,4.30
2023-01-10T00:29:02.715Z,4.30
2023-01-10T00:30:02.763Z,4.30
2023-01-10T00:31:02.712Z,4.30
2023-01-10T00:32:02.812Z,4.30
2023-01-10T00:33:02.717Z,4.30
2023-01-10T00:34:02.724Z,4.30
2023-01-10T00:35:02.727Z,4.30
2023-01-10T00:36:02.567Z,4.30
2023-01-10T00:37:02.616Z,4.30
2023-01-10T00:38:02.660Z,4.30
2023-01-10T00:39:03.511Z,4.30
2023-01-10T00:40:03.463Z,4.30
2023-01-10T00:41:03.497Z,4.30
2023-01-10T00:42:03.379Z,4.30
2023-01-10T00:43:03.275Z,4.30
2023-01-10T00:44:03.249Z,4.30
2023-01-10T00:45:03.245Z,4.30
2023-01-10T00:46:03.269Z,4.30
2023-01-10T00:47:03.094Z,4.30
2023-01-10T00:48:03.015Z,4.30
2023-01-10T00:49:03.079Z,4.30
2023-01-10T00:50:03.049Z,4.40
2023-01-10T00:51:02.894Z,4.40
2023-01-10T00:52:02.869Z,4.30
2023-01-10T00:53:02.868Z,4.40
2023-01-10T00:54:02.926Z,4.40
2023-01-10T00:55:02.839Z,4.40
2023-01-10T00:56:02.767Z,4.40
2023-01-10T00:57:02.684Z,4.40
2023-01-10T00:58:03.588Z,4.40
2023-01-10T00:59:03.585Z,4.40
2023-01-10T01:00:03.534Z,4.40
2023-01-10T01:01:03.469Z,4.40
2023-01-10T01:02:03.418Z,4.40
2023-01-10T01:03:03.306Z,4.40
2023-01-10T01:04:03.190Z,4.40
2023-01-10T01:05:03.077Z,4.40
2023-01-10T01:06:03.065Z,4.40
2023-01-10T01:07:03.077Z,4.40
2023-01-10T01:08:02.977Z,4.40
2023-01-10T01:09:03.037Z,4.40
2023-01-10T01:10:03.250Z,4.40
2023-01-10T01:11:03.288Z,4.40
2023-01-10T01:12:03.148Z,4.40
2023-01-10T01:13:03.095Z,4.50
2023-01-10T01:14:03.030Z,4.50
2023-01-10T01:15:03.017Z,4.50
2023-01-10T01:16:03.123Z,4.50
2023-01-10T01:17:03.079Z,4.50
2023-01-10T01:18:03.049Z,4.50
2023-01-10T01:19:03.042Z,4.50
2023-01-10T01:20:03.004Z,4.50
2023-01-10T01:21:03.103Z,4.50
2023-01-10T01:22:02.983Z,4.50
2023-01-10T01:23:02.969Z,4.50
2023-01-10T01:24:02.853Z,4.50
2023-01-10T01:25:02.944Z,4.50
2023-01-10T01:26:02.992Z,4.50
2023-01-10T01:27:02.850Z,4.50
2023-01-10T01:28:02.777Z,4.50
2023-01-10T01:29:02.862Z,4.50
2023-01-10T01:30:02.769Z,4.50
2023-01-10T01:31:02.821Z,4.50
2023-01-10T01:32:02.803Z,4.50
2023-01-10T01:33:02.674Z,4.50
2023-01-10T01:34:02.771Z,4.50
2023-01-10T01:35:02.589Z,4.50
2023-01-10T01:36:03.679Z,4.50
2023-01-10T01:37:03.512Z,4.50
2023-01-10T01:38:03.538Z,4.50
2023-01-10T01:39:03.534Z,4.50
2023-01-10T01:40:03.391Z,4.50
2023-01-10T01:41:03.400Z,4.50
2023-01-10T01:42:03.262Z,4.50
2023-01-10T01:43:03.151Z,4.50
2023-01-10T01:44:03.178Z,4.50
2023-01-10T01:45:03.107Z,4.50
2023-01-10T01:46:03.200Z,4.60
2023-01-10T01:47:02.906Z,4.50
2023-01-10T01:48:02.968Z,4.50
2023-01-10T01:49:02.863Z,4.50
2023-01-10T01:50:02.820Z,4.50
2023-01-10T01:51:02.799Z,4.60
2023-01-10T01:52:02.899Z,4.60
2023-01-10T01:53:02.999Z,4.50
2023-01-10T01:54:02.950Z,4.50
2023-01-10T01:55:02.870Z,4.50
2023-01-10T01:56:02.861Z,4.60
2023-01-10T01:57:02.974Z,4.50
2023-01-10T01:58:02.850Z,4.50
2023-01-10T01:59:02.776Z,4.60
2023-01-10T02:00:02.800Z,4.60
2023-01-10T02:01:02.724Z,4.50
2023-01-10T02:02:02.752Z,4.60
2023-01-10T02:03:03.460Z,4.60
2023-01-10T02:04:03.068Z,4.60
2023-01-10T02:05:02.889Z,4.60
2023-01-10T02:06:02.928Z,4.60
2023-01-10T02:07:02.908Z,4.60
2023-01-10T02:08:02.885Z,4.60
2023-01-10T02:09:02.691Z,4.60
2023-01-10T02:10:02.723Z,4.60
2023-01-10T02:11:02.781Z,4.60
2023-01-10T02:12:02.863Z,4.60
2023-01-10T02:13:03.104Z,4.60
2023-01-10T02:14:03.133Z,4.60
2023-01-10T02:15:03.114Z,4.60
2023-01-10T02:16:03.053Z,4.60
2023-01-10T02:17:03.013Z,4.60
2023-01-10T02:18:02.924Z,4.60
2023-01-10T02:19:02.817Z,4.60
2023-01-10T02:20:02.878Z,4.60
2023-01-10T02:21:02.764Z,4.60
2023-01-10T02:22:02.771Z,4.60
2023-01-10T02:23:02.753Z,4.60
2023-01-10T02:24:02.675Z,4.60
2023-01-10T02:25:02.610Z,4.60
2023-01-10T02:26:03.503Z,4.60
2023-01-10T02:27:03.514Z,4.60
2023-01-10T02:28:02.728Z,4.60
2023-01-10T02:29:02.660Z,4.60
2023-01-10T02:30:02.776Z,4.60
2023-01-10T02:31:02.752Z,4.60
2023-01-10T02:32:02.595Z,4.60
2023-01-10T02:33:05.254Z,4.60
2023-01-10T02:34:03.781Z,4.60
2023-01-10T02:35:03.338Z,4.60
2023-01-10T02:36:03.347Z,4.60
2023-01-10T02:37:03.314Z,4.60
2023-01-10T02:38:03.205Z,4.60
2023-01-10T02:39:03.116Z,4.60
2023-01-10T02:40:03.102Z,4.60
2023-01-10T02:41:03.031Z,4.60
2023-01-10T02:42:03.013Z,4.60
2023-01-10T02:43:02.959Z,4.60
2023-01-10T02:44:02.912Z,4.60
2023-01-10T02:45:02.929Z,4.60
2023-01-10T02:46:02.937Z,4.60
2023-01-10T02:47:02.819Z,4.60
2023-01-10T02:48:02.749Z,4.60
2023-01-10T02:49:02.649Z,4.60
2023-01-10T02:50:03.501Z,4.60
2023-01-10T02:51:03.552Z,4.60
2023-01-10T02:52:03.466Z,4.60
2023-01-10T02:53:03.410Z,4.60
2023-01-10T02:54:03.283Z,4.60
2023-01-10T02:55:03.271Z,4.60
2023-01-10T02:56:03.191Z,4.60
2023-01-10T02:57:03.208Z,4.60
2023-01-10T02:58:03.209Z,4.60
2023-01-10T02:59:03.121Z,4.60
2023-01-10T03:00:03.145Z,4.60
2023-01-10T03:01:03.077Z,4.60
2023-01-10T03:02:02.968Z,4.60
2023-01-10T03:03:02.921Z,4.60
2023-01-10T03:04:02.987Z,4.60
2023-01-10T03:05:03.112Z,4.60
2023-01-10T03:06:02.897Z,4.60
2023-01-10T03:07:02.969Z,4.60
2023-01-10T03:08:02.981Z,4.60
2023-01-10T03:09:02.838Z,4.60
2023-01-10T03:10:02.755Z,4.60
2023-01-10T03:11:02.749Z,4.60
2023-01-10T03:12:02.699Z,4.60
2023-01-10T03:13:02.833Z,4.60
2023-01-10T03:14:02.728Z,4.60
2023-01-10T03:15:02.571Z,4.60
2023-01-10T03:16:02.686Z,4.60
2023-01-10T03:17:04.728Z,4.60
2023-01-10T03:18:02.806Z,4.60
2023-01-10T03:19:02.733Z,4.60
2023-01-10T03:20:02.749Z,4.60
2023-01-10T03:21:02.750Z,4.60
2023-01-10T03:22:02.687Z,4.60
2023-01-10T03:23:02.728Z,4.60
2023-01-10T03:24:02.678Z,4.60
2023-01-10T03:25:02.567Z,4.60
2023-01-10T03:26:02.651Z,4.60
2023-01-10T03:27:03.579Z,4.60
2023-01-10T03:28:03.578Z,4.60
2023-01-10T03:29:03.656Z,4.60
2023-01-10T03:30:03.360Z,4.60
2023-01-10T03:31:03.323Z,4.60
2023-01-10T03:32:03.277Z,4.60
2023-01-10T03:33:03.243Z,4.60
2023-01-10T03:34:03.131Z,4.60
2023-01-10T03:35:03.055Z,4.60
2023-01-10T03:36:03.042Z,4.60
2023-01-10T03:37:03.028Z,4.60
2023-01-10T03:38:03.092Z,4.60
2023-01-10T03:39:03.036Z,4.60
2023-01-10T03:40:02.968Z,4.60
2023-01-10T03:41:02.828Z,4.60
2023-01-10T03:42:02.858Z,4.60
2023-01-10T03:43:02.893Z,4.60
2023-01-10T03:44:02.818Z,4.60
2023-01-10T03:45:02.743Z,4.60
2023-01-10T03:46:02.626Z,4.60
2023-01-10T03:47:02.687Z,4.60
2023-01-10T03:48:03.631Z,4.60
2023-01-10T03:49:03.527Z,4.60
2023-01-10T03:50:03.453Z,4.70
2023-01-10T03:51:03.423Z,4.60
2023-01-10T03:52:03.410Z,4.70
2023-01-10T03:53:03.436Z,4.70
2023-01-10T03:54:03.240Z,4.70
2023-01-10T03:55:03.201Z,4.70
2023-01-10T03:56:03.179Z,4.70
2023-01-10T03:57:03.086Z,4.70
2023-01-10T03:58:03.070Z,4.70
2023-01-10T03:59:03.080Z,4.70
2023-01-10T04:00:02.982Z,4.70
2023-01-10T04:01:02.964Z,4.70
2023-01-10T04:02:02.882Z,4.70
2023-01-10T04:03:02.804Z,4.70
2023-01-10T04:04:02.891Z,4.70
2023-01-10T04:05:02.780Z,4.70
2023-01-10T04:06:02.703Z,4.70
2023-01-10T04:07:02.774Z,4.70
2023-01-10T04:08:02.656Z,4.70
2023-01-10T04:09:02.752Z,4.70
2023-01-10T04:10:02.741Z,4.70
2023-01-10T04:11:02.666Z,4.70
2023-01-10T04:12:03.563Z,4.70
2023-01-10T04:13:03.603Z,4.80
2023-01-10T04:14:03.820Z,4.80
2023-01-10T04:15:02.788Z,4.80
2023-01-10T04:16:02.712Z,4.80
2023-01-10T04:17:02.657Z,4.80
2023-01-10T04:18:03.530Z,4.80
2023-01-10T04:19:03.545Z,4.80
2023-01-10T04:20:03.458Z,4.80
2023-01-10T04:21:03.325Z,4.80
2023-01-10T04:22:03.339Z,4.80
2023-01-10T04:23:03.214Z,4.80
2023-01-10T04:24:03.087Z,4.80
2023-01-10T04:25:03.118Z,4.80
2023-01-10T04:26:03.070Z,4.80
2023-01-10T04:27:03.079Z,4.80
2023-01-10T04:28:02.954Z,4.80
2023-01-10T04:29:02.962Z,4.80
2023-01-10T04:30:02.767Z,4.80
2023-01-10T04:31:02.731Z,4.90
2023-01-10T04:32:02.756Z,4.90
2023-01-10T04:33:02.733Z,4.90
2023-01-10T04:34:02.666Z,4.90
2023-01-10T04:35:02.707Z,4.90
2023-01-10T04:36:02.716Z,4.90
2023-01-10T04:37:02.789Z,4.90
2023-01-10T04:38:02.754Z,4.90
2023-01-10T04:39:02.692Z,4.90
2023-01-10T04:40:03.531Z,4.90
2023-01-10T04:41:03.503Z,4.90
2023-01-10T04:42:03.434Z,4.90
2023-01-10T04:43:03.426Z,4.90
2023-01-10T04:44:03.376Z,4.90
2023-01-10T04:45:03.419Z,4.90
2023-01-10T04:46:03.423Z,4.90
2023-01-10T04:47:03.369Z,4.90
2023-01-10T04:48:03.308Z,4.90
2023-01-10T04:49:03.345Z,4.90
2023-01-10T04:50:03.306Z,4.90
2023-01-10T04:51:03.346Z,4.90
2023-01-10T04:52:03.204Z,4.90
2023-01-10T04:53:03.235Z,4.90
2023-01-10T04:54:03.191Z,4.90
2023-01-10T04:55:03.202Z,4.90
2023-01-10T04:56:03.151Z,4.90
2023-01-10T04:57:03.029Z,4.90
2023-01-10T04:58:03.108Z,4.90
2023-01-10T04:59:03.106Z,4.90
2023-01-10T05:00:03.098Z,4.90
2023-01-10T05:01:03.025Z,4.90
2023-01-10T05:02:03.219Z,4.90
2023-01-10T05:03:03.111Z,4.90
2023-01-10T05:04:03.035Z,4.90
2023-01-10T05:05:02.828Z,4.90
2023-01-10T05:06:02.791Z,4.90
2023-01-10T05:07:02.694Z,4.90
2023-01-10T05:08:02.686Z,4.90
2023-01-10T05:09:02.612Z,4.90
2023-01-10T05:10:02.606Z,4.90
2023-01-10T05:11:02.614Z,4.90
2023-01-10T05:12:03.563Z,5.00
2023-01-10T05:13:03.527Z,5.00
2023-01-10T05:14:03.547Z,4.90
2023-01-10T05:15:03.385Z,4.90
2023-01-10T05:16:03.301Z,4.90
2023-01-10T05:17:03.372Z,4.90
2023-01-10T05:18:03.303Z,4.90
2023-01-10T05:19:03.235Z,4.90
2023-01-10T05:20:03.187Z,4.90
2023-01-10T05:21:03.055Z,4.90
2023-01-10T05:22:03.147Z,4.90
2023-01-10T05:23:03.231Z,5.00
2023-01-10T05:24:03.218Z,4.90
2023-01-10T05:25:03.254Z,4.90
2023-01-10T05:26:03.409Z,4.90
2023-01-10T05:27:03.305Z,4.90
2023-01-10T05:28:03.295Z,4.90
2023-01-10T05:29:03.314Z,5.00
2023-01-10T05:30:03.379Z,5.00
2023-01-10T05:31:03.346Z,5.00
2023-01-10T05:32:03.415Z,4.90
2023-01-10T05:33:03.287Z,5.00
2023-01-10T05:34:03.263Z,5.00
2023-01-10T05:35:03.210Z,5.00
2023-01-10T05:36:03.062Z,5.00
2023-01-10T05:37:03.020Z,5.00
2023-01-10T05:38:02.928Z,5.00
2023-01-10T05:39:02.901Z,5.00
2023-01-10T05:40:02.778Z,5.00
2023-01-10T05:41:02.804Z,5.00
2023-01-10T05:42:02.848Z,5.00
2023-01-10T05:43:02.693Z,5.00
2023-01-10T05:44:02.603Z,5.00
2023-01-10T05:45:02.661Z,5.00
2023-01-10T05:46:03.606Z,5.00
2023-01-10T05:47:03.547Z,5.00
2023-01-10T05:48:03.466Z,5.00
2023-01-10T05:49:03.390Z,5.00
2023-01-10T05:50:03.413Z,5.00
2023-01-10T05:51:03.254Z,5.00
2023-01-10T05:52:03.217Z,5.00
2023-01-10T05:53:03.160Z,5.00
2023-01-10T05:54:03.057Z,5.00
2023-01-10T05:55:03.075Z,5.00
2023-01-10T05:56:02.938Z,5.00
2023-01-10T05:57:02.967Z,5.00
2023-01-10T05:58:03.081Z,5.00
2023-01-10T05:59:11.727Z,5.00
2023-01-10T06:00:04.987Z,5.00
2023-01-10T06:01:03.047Z,5.00
2023-01-10T06:02:02.971Z,5.00
2023-01-10T06:03:02.897Z,5.00
2023-01-10T06:04:02.784Z,5.00
2023-01-10T06:05:02.798Z,5.10
2023-01-10T06:06:02.703Z,5.10
2023-01-10T06:07:03.217Z,5.10
2023-01-10T06:08:03.165Z,5.10
2023-01-10T06:09:03.108Z,5.10
2023-01-10T06:10:03.083Z,5.10
2023-01-10T06:11:03.095Z,5.10
2023-01-10T06:12:03.000Z,5.10
2023-01-10T06:13:02.977Z,5.10
2023-01-10T06:14:02.892Z,5.10
2023-01-10T06:15:02.850Z,5.10
2023-01-10T06:16:02.724Z,5.10
2023-01-10T06:17:02.952Z,5.10
2023-01-10T06:18:02.913Z,5.10
2023-01-10T06:19:03.016Z,5.10
2023-01-10T06:20:02.921Z,5.10
2023-01-10T06:21:02.836Z,5.10
2023-01-10T06:22:02.813Z,5.10
2023-01-10T06:23:02.717Z,5.10
2023-01-10T06:24:02.653Z,5.10
2023-01-10T06:25:03.631Z,5.10
2023-01-10T06:26:03.460Z,5.10
2023-01-10T06:27:03.396Z,5.10
2023-01-10T06:28:03.455Z,5.10
2023-01-10T06:29:03.521Z,5.10
2023-01-10T06:30:03.562Z,5.10
2023-01-10T06:31:02.854Z,5.10
2023-01-10T06:32:02.609Z,5.10
2023-01-10T06:33:03.539Z,5.10
2023-01-10T06:34:03.459Z,5.10
2023-01-10T06:35:03.418Z,5.10
2023-01-10T06:36:03.374Z,5.10
2023-01-10T06:37:03.346Z,5.10
2023-01-10T06:38:03.297Z,5.10
2023-01-10T06:39:03.223Z,5.10
2023-01-10T06:40:03.189Z,5.10
2023-01-10T06:41:03.215Z,5.10
2023-01-10T06:42:03.092Z,5.10
2023-01-10T06:43:03.099Z,5.10
2023-01-10T06:44:03.042Z,5.10
2023-01-10T06:45:03.131Z,5.10
2023-01-10T06:46:02.981Z,5.10
2023-01-10T06:47:02.930Z,5.10
2023-01-10T06:48:02.890Z,5.10
2023-01-10T06:49:02.978Z,5.00
2023-01-10T06:50:02.772Z,5.00
2023-01-10T06:51:02.663Z,5.00
2023-01-10T06:52:02.629Z,5.00
2023-01-10T06:53:02.657Z,5.00
2023-01-10T06:54:03.581Z,5.00
2023-01-10T06:55:03.484Z,5.00
2023-01-10T06:56:03.420Z,5.00
2023-01-10T06:57:03.387Z,5.00
2023-01-10T06:58:03.278Z,4.90
2023-01-10T06:59:03.194Z,4.90
2023-01-10T07:00:03.161Z,4.90
2023-01-10T07:01:03.210Z,4.90
2023-01-10T07:02:03.194Z,4.90
2023-01-10T07:03:02.968Z,4.90
2023-01-10T07:04:02.982Z,4.90
2023-01-10T07:05:02.813Z,4.80
2023-01-10T07:06:02.913Z,4.80
2023-01-10T07:07:02.752Z,4.80
2023-01-10T07:08:02.709Z,4.80
2023-01-10T07:09:02.696Z,4.80
2023-01-10T07:10:03.601Z,4.80
2023-01-10T07:11:03.527Z,4.80
2023-01-10T07:12:03.500Z,4.70
2023-01-10T07:13:03.449Z,4.70
2023-01-10T07:14:03.425Z,4.70
2023-01-10T07:15:03.339Z,4.70
2023-01-10T07:16:03.385Z,4.70
2023-01-10T07:17:03.207Z,4.70
2023-01-10T07:18:03.317Z,4.70
2023-01-10T07:19:03.294Z,4.70
2023-01-10T07:20:03.329Z,4.70
2023-01-10T07:21:03.179Z,4.70
2023-01-10T07:22:03.153Z,4.60
2023-01-10T07:23:02.988Z,4.60
2023-01-10T07:24:03.152Z,4.60
2023-01-10T07:25:03.027Z,4.60
2023-01-10T07:26:02.958Z,4.60
2023-01-10T07:27:02.810Z,4.60
2023-01-10T07:28:02.863Z,4.60
2023-01-10T07:29:02.901Z,4.60
2023-01-10T07:30:02.932Z,4.60
2023-01-10T07:31:03.046Z,4.60
2023-01-10T07:32:02.715Z,4.50
2023-01-10T07:33:02.771Z,4.50
2023-01-10T07:34:03.557Z,4.50
2023-01-10T07:35:03.627Z,4.50
2023-01-10T07:36:03.487Z,4.50
2023-01-10T07:37:03.320Z,4.50
2023-01-10T07:38:03.403Z,4.50
2023-01-10T07:39:03.226Z,4.50
2023-01-10T07:40:03.257Z,4.50
2023-01-10T07:41:03.158Z,4.50
2023-01-10T07:42:03.028Z,4.40
2023-01-10T07:43:02.924Z,4.40
2023-01-10T07:44:02.961Z,4.40
2023-01-10T07:45:02.763Z,4.40
2023-01-10T07:46:02.896Z,4.40
2023-01-10T07:47:02.818Z,4.40
2023-01-10T07:48:02.759Z,4.40
2023-01-10T07:49:02.650Z,4.40
2023-01-10T07:50:02.772Z,4.40
2023-01-10T07:51:02.595Z,4.40
2023-01-10T07:52:02.649Z,4.40
2023-01-10T07:53:03.577Z,4.40
2023-01-10T07:54:02.652Z,4.40
2023-01-10T07:55:03.651Z,4.40
2023-01-10T07:56:03.484Z,4.40
2023-01-10T07:57:03.429Z,4.40
2023-01-10T07:58:03.360Z,4.40
2023-01-10T07:59:03.267Z,4.40
2023-01-10T08:00:03.217Z,4.40
2023-01-10T08:01:03.137Z,4.40
2023-01-10T08:02:03.109Z,4.40
2023-01-10T08:03:03.111Z,4.40
2023-01-10T08:04:02.925Z,4.40
2023-01-10T08:05:02.911Z,4.40
2023-01-10T08:06:02.964Z,4.40
2023-01-10T08:07:03.025Z,4.40
2023-01-10T08:08:02.893Z,4.40
2023-01-10T08:09:02.798Z,4.40
2023-01-10T08:10:02.874Z,4.40
2023-01-10T08:11:02.737Z,4.40
2023-01-10T08:12:02.673Z,4.40
2023-01-10T08:13:13.280Z,4.50
2023-01-10T08:14:03.545Z,4.50
2023-01-10T08:15:03.495Z,4.50
2023-01-10T08:16:03.365Z,4.50
2023-01-10T08:17:03.407Z,4.50
2023-01-10T08:18:04.789Z,4.50
2023-01-10T08:19:03.316Z,4.50
2023-01-10T08:20:03.324Z,4.50
2023-01-10T08:21:03.154Z,4.50
2023-01-10T08:22:03.171Z,4.50
2023-01-10T08:23:03.114Z,4.50
2023-01-10T08:24:03.108Z,4.50
2023-01-10T08:25:03.151Z,4.50
2023-01-10T08:26:03.118Z,4.50
2023-01-10T08:27:03.138Z,4.50
2023-01-10T08:28:03.124Z,4.50
2023-01-10T08:29:03.143Z,4.50
2023-01-10T08:30:03.024Z,4.50
2023-01-10T08:31:03.024Z,4.50
2023-01-10T08:32:02.896Z,4.50
2023-01-10T08:33:02.720Z,4.50
2023-01-10T08:34:02.755Z,4.50
2023-01-10T08:35:02.826Z,4.60
2023-01-10T08:36:03.226Z,4.60
2023-01-10T08:37:03.539Z,4.60
2023-01-10T08:38:02.937Z,4.60
2023-01-10T08:39:02.838Z,4.60
2023-01-10T08:40:02.884Z,4.60
2023-01-10T08:41:02.780Z,4.60
2023-01-10T08:42:02.893Z,4.60
2023-01-10T08:43:02.752Z,4.60
2023-01-10T08:44:02.769Z,4.60
2023-01-10T08:45:02.653Z,4.60
2023-01-10T08:46:03.577Z,4.60
2023-01-10T08:47:02.664Z,4.60
2023-01-10T08:48:02.629Z,4.60
2023-01-10T08:49:02.582Z,4.60
2023-01-10T08:50:03.930Z,4.60
2023-01-10T08:51:03.471Z,4.60
2023-01-10T08:52:03.564Z,4.70
2023-01-10T08:53:03.453Z,4.70
2023-01-10T08:54:03.323Z,4.70
2023-01-10T08:55:03.359Z,4.70
2023-01-10T08:56:04.870Z,4.70
2023-01-10T08:57:04.059Z,4.70
2023-01-10T08:58:03.252Z,4.70
2023-01-10T08:59:03.219Z,4.70
2023-01-10T09:00:03.210Z,4.70
2023-01-10T09:01:03.094Z,4.80
2023-01-10T09:02:03.073Z,4.80
2023-01-10T09:03:03.172Z,4.80
2023-01-10T09:04:03.091Z,4.80
2023-01-10T09:05:03.910Z,4.80
2023-01-10T09:06:03.096Z,4.80
2023-01-10T09:07:03.047Z,4.80
2023-01-10T09:08:03.111Z,4.80
2023-01-10T09:09:03.044Z,4.90
2023-01-10T09:10:03.035Z,4.90
2023-01-10T09:11:02.984Z,4.90
2023-01-10T09:12:03.081Z,4.90
2023-01-10T09:13:03.084Z,4.90
2023-01-10T09:14:03.081Z,4.90
2023-01-10T09:15:03.020Z,4.90
2023-01-10T09:16:03.047Z,5.00
2023-01-10T09:17:02.920Z,5.00
2023-01-10T09:18:02.992Z,5.00
2023-01-10T09:19:02.840Z,5.00
2023-01-10T09:20:02.735Z,5.00
2023-01-10T09:21:02.618Z,5.00
2023-01-10T09:22:03.606Z,5.00
2023-01-10T09:23:02.749Z,5.10
2023-01-10T09:24:03.643Z,5.10
2023-01-10T09:25:03.419Z,5.10
2023-01-10T09:26:03.267Z,5.10
2023-01-10T09:27:02.792Z,5.10
2023-01-10T09:28:02.734Z,5.10
2023-01-10T09:29:02.707Z,5.10
2023-01-10T09:30:03.542Z,5.20
2023-01-10T09:31:02.672Z,5.20
2023-01-10T09:32:03.556Z,5.20
2023-01-10T09:33:03.580Z,5.20
2023-01-10T09:34:03.401Z,5.20
2023-01-10T09:35:03.294Z,5.20
2023-01-10T09:36:03.182Z,5.20
2023-01-10T09:37:03.079Z,5.20
2023-01-10T09:38:03.125Z,5.30
2023-01-10T09:39:03.021Z,5.20
2023-01-10T09:40:02.974Z,5.30
2023-01-10T09:41:02.779Z,5.30
2023-01-10T09:42:02.710Z,5.30
2023-01-10T09:43:02.728Z,5.30
2023-01-10T09:44:02.592Z,5.30
2023-01-10T09:45:03.575Z,5.30
2023-01-10T09:46:03.406Z,5.30
2023-01-10T09:47:08.563Z,5.30
2023-01-10T09:48:03.567Z,5.30
2023-01-10T09:49:03.397Z,5.30
2023-01-10T09:50:03.275Z,5.30
2023-01-10T09:51:03.209Z,5.40
2023-01-10T09:52:03.106Z,5.40
2023-01-10T09:53:03.111Z,5.40
2023-01-10T09:54:10.971Z,5.40
2023-01-10T09:55:03.923Z,5.40
2023-01-10T09:56:02.956Z,5.40
2023-01-10T09:57:02.852Z,5.40
2023-01-10T09:58:03.039Z,5.40
2023-01-10T09:59:02.929Z,5.40
2023-01-10T10:00:02.962Z,5.50
2023-01-10T10:01:02.859Z,5.50
2023-01-10T10:02:02.866Z,5.50
2023-01-10T10:03:02.916Z,5.50
2023-01-10T10:04:02.882Z,5.50
2023-01-10T10:05:02.757Z,5.50
2023-01-10T10:06:11.465Z,5.60
2023-01-10T10:07:02.938Z,5.60
2023-01-10T10:08:02.898Z,5.60
2023-01-10T10:09:04.910Z,5.60
2023-01-10T10:10:02.773Z,5.60
2023-01-10T10:11:02.711Z,5.60
2023-01-10T10:12:02.723Z,5.70
2023-01-10T10:13:02.628Z,5.70
2023-01-10T10:14:02.726Z,5.70
2023-01-10T10:15:03.624Z,5.70
2023-01-10T10:16:03.522Z,5.70
2023-01-10T10:17:03.409Z,5.70
2023-01-10T10:18:03.509Z,5.70
2023-01-10T10:19:03.462Z,5.70
2023-01-10T10:20:03.390Z,5.80
2023-01-10T10:21:03.304Z,5.80
2023-01-10T10:22:03.279Z,5.80
2023-01-10T10:23:03.119Z,5.80
2023-01-10T10:24:03.151Z,5.80
2023-01-10T10:25:02.952Z,5.80
2023-01-10T10:26:02.978Z,5.90
2023-01-10T10:27:02.836Z,5.90
2023-01-10T10:28:02.741Z,5.90
2023-01-10T10:29:02.743Z,5.90
2023-01-10T10:30:02.648Z,5.90
2023-01-10T10:31:03.691Z,6.00
2023-01-10T10:32:03.514Z,6.00
2023-01-10T10:33:03.475Z,6.00
2023-01-10T10:34:03.502Z,6.00
2023-01-10T10:35:03.369Z,6.00
2023-01-10T10:36:03.361Z,6.10
2023-01-10T10:37:03.235Z,6.10
2023-01-10T10:38:03.264Z,6.10
2023-01-10T10:39:03.188Z,6.10
2023-01-10T10:40:03.301Z,6.10
2023-01-10T10:41:03.166Z,6.10
2023-01-10T10:42:03.097Z,6.10
2023-01-10T10:43:03.022Z,6.10
2023-01-10T10:44:02.972Z,6.10
2023-01-10T10:45:02.862Z,6.20
2023-01-10T10:46:02.955Z,6.20
2023-01-10T10:47:02.778Z,6.20
2023-01-10T10:48:02.716Z,6.20
2023-01-10T10:49:03.633Z,6.20
2023-01-10T10:50:03.536Z,6.30
2023-01-10T10:51:03.516Z,6.30
2023-01-10T10:52:03.417Z,6.30
2023-01-10T10:53:03.523Z,6.30
2023-01-10T10:54:03.516Z,6.30
2023-01-10T10:55:03.307Z,6.30
2023-01-10T10:56:03.256Z,6.30
2023-01-10T10:57:03.164Z,6.40
2023-01-10T10:58:03.109Z,6.40
2023-01-10T10:59:03.178Z,6.40
2023-01-10T11:00:03.153Z,6.40
2023-01-10T11:01:03.187Z,6.40
2023-01-10T11:02:03.132Z,6.40
2023-01-10T11:03:03.008Z,6.40
2023-01-10T11:04:03.113Z,6.40
2023-01-10T11:05:03.039Z,6.40
2023-01-10T11:06:02.926Z,6.40
2023-01-10T11:07:02.983Z,6.40
2023-01-10T11:08:03.051Z,6.40
2023-01-10T11:09:03.198Z,6.40
2023-01-10T11:10:03.213Z,6.40
2023-01-10T11:11:03.269Z,6.40
2023-01-10T11:12:03.181Z,6.40
2023-01-10T11:13:03.087Z,6.40
2023-01-10T11:14:03.130Z,6.40
2023-01-10T11:15:03.154Z,6.40
2023-01-10T11:16:03.164Z,6.40
2023-01-10T11:17:03.140Z,6.40
2023-01-10T11:18:03.109Z,6.40
2023-01-10T11:19:03.109Z,6.40
2023-01-10T11:20:03.086Z,6.40
2023-01-10T11:21:02.938Z,6.40
2023-01-10T11:22:02.909Z,6.40
2023-01-10T11:23:02.901Z,6.40
2023-01-10T11:24:02.845Z,6.40
2023-01-10T11:25:02.874Z,6.40
2023-01-10T11:26:02.852Z,6.40
2023-01-10T11:27:02.813Z,6.40
2023-01-10T11:28:02.732Z,6.40
2023-01-10T11:29:02.620Z,6.40
2023-01-10T11:30:03.581Z,6.40
2023-01-10T11:31:03.442Z,6.40
2023-01-10T11:32:03.402Z,6.40
2023-01-10T11:33:03.542Z,6.40
2023-01-10T11:34:03.422Z,6.40
2023-01-10T11:35:03.424Z,6.40
2023-01-10T11:36:03.400Z,6.40
2023-01-10T11:37:03.204Z,6.40
2023-01-10T11:38:03.155Z,6.40
2023-01-10T11:39:03.147Z,6.30
2023-01-10T11:40:03.157Z,6.30
2023-01-10T11:41:03.046Z,6.30
2023-01-10T11:42:02.940Z,6.30
2023-01-10T11:43:02.901Z,6.30
2023-01-10T11:44:02.803Z,6.30
2023-01-10T11:45:02.780Z,6.30
2023-01-10T11:46:02.659Z,6.30
2023-01-10T11:47:03.600Z,6.30
2023-01-10T11:48:03.530Z,6.30
2023-01-10T11:49:07.045Z,6.30
2023-01-10T11:50:03.465Z,6.30
2023-01-10T11:51:03.285Z,6.30
2023-01-10T11:52:03.262Z,6.30
2023-01-10T11:53:03.189Z,6.30
2023-01-10T11:54:03.289Z,6.30
2023-01-10T11:55:03.280Z,6.30
2023-01-10T11:56:03.207Z,6.30
2023-01-10T11:57:03.115Z,6.30
2023-01-10T11:58:02.979Z,6.30
2023-01-10T11:59:03.132Z,6.30
2023-01-10T12:00:03.030Z,6.30
2023-01-10T12:01:02.988Z,6.30
2023-01-10T12:02:03.019Z,6.30
2023-01-10T12:03:02.964Z,6.30
2023-01-10T12:04:02.891Z,6.30
2023-01-10T12:05:02.882Z,6.30
2023-01-10T12:06:02.971Z,6.30
2023-01-10T12:07:02.892Z,6.30
2023-01-10T12:08:02.883Z,6.30
2023-01-10T12:09:02.754Z,6.30
2023-01-10T12:10:02.780Z,6.30
2023-01-10T12:11:02.803Z,6.30
2023-01-10T12:12:02.826Z,6.40
2023-01-10T12:13:02.852Z,6.40
2023-01-10T12:14:02.741Z,6.40
2023-01-10T12:15:02.831Z,6.40
2023-01-10T12:16:02.802Z,6.40
2023-01-10T12:17:02.787Z,6.40
2023-01-10T12:18:02.659Z,6.40
2023-01-10T12:19:03.571Z,6.40
2023-01-10T12:20:02.731Z,6.40
2023-01-10T12:21:03.602Z,6.40
2023-01-10T12:22:03.565Z,6.40
2023-01-10T12:23:03.472Z,6.40
2023-01-10T12:24:03.415Z,6.40
2023-01-10T12:25:03.473Z,6.40
2023-01-10T12:26:11.317Z,6.40
2023-01-10T12:27:03.240Z,6.40
2023-01-10T12:28:03.160Z,6.40
2023-01-10T12:29:03.125Z,6.40
2023-01-10T12:30:03.118Z,6.40
2023-01-10T12:31:03.027Z,6.40
2023-01-10T12:32:02.902Z,6.40
2023-01-10T12:33:02.978Z,6.40
2023-01-10T12:34:02.891Z,6.40
2023-01-10T12:35:02.951Z,6.40
2023-01-10T12:36:02.829Z,6.40
2023-01-10T12:37:02.794Z,6.40
2023-01-10T12:38:02.927Z,6.40
2023-01-10T12:39:02.959Z,6.40
2023-01-10T12:40:02.915Z,6.40
2023-01-10T12:41:02.999Z,6.40
2023-01-10T12:42:02.869Z,6.40
2023-01-10T12:43:02.882Z,6.40
2023-01-10T12:44:02.820Z,6.40
2023-01-10T12:45:02.804Z,6.40
2023-01-10T12:46:09.598Z,6.40
2023-01-10T12:47:07.634Z,6.40
2023-01-10T12:48:02.622Z,6.40
2023-01-10T12:49:03.521Z,6.40
2023-01-10T12:50:03.439Z,6.40
2023-01-10T12:51:03.432Z,6.40
2023-01-10T12:52:03.410Z,6.40
2023-01-10T12:53:03.332Z,6.40
2023-01-10T12:54:03.237Z,6.40
2023-01-10T12:55:03.304Z,6.40
2023-01-10T12:56:03.362Z,6.40
2023-01-10T12:57:03.199Z,6.40
2023-01-10T12:58:03.132Z,6.40
2023-01-10T12:59:03.138Z,6.40
2023-01-10T13:00:03.291Z,6.50
2023-01-10T13:01:03.231Z,6.40
2023-01-10T13:02:03.196Z,6.40
2023-01-10T13:03:03.188Z,6.40
2023-01-10T13:04:03.067Z,6.40
2023-01-10T13:05:03.147Z,6.50
2023-01-10T13:06:03.041Z,6.50
2023-01-10T13:07:02.875Z,6.40
2023-01-10T13:08:02.846Z,6.50
2023-01-10T13:09:02.908Z,6.50
2023-01-10T13:10:03.188Z,6.50
2023-01-10T13:11:02.819Z,6.50
2023-01-10T13:12:02.706Z,6.50
2023-01-10T13:13:02.699Z,6.50
2023-01-10T13:14:02.602Z,6.50
2023-01-10T13:15:03.542Z,6.50
2023-01-10T13:16:03.565Z,6.50
2023-01-10T13:17:03.509Z,6.50
2023-01-10T13:18:03.545Z,6.50